Latest Weather Observations for Oodnadatta

IDS60801

Issued at 4:01 pm CST Monday 27 May 2019 (issued every 10 minutes, with the page automatically refreshed every 10 minutes)

About weather observations | Map of weather stations | Latest weather observations for SA | Other Formats
Station Details ID: 017043 Name: OODNADATTA AIRPORT Lat: -27.56 Lon: 135.45 Height: 116.5 m
Data from the previous 72 hours. | See also: Recent months at Oodnadatta
Date/Time
CST
Temp
°C
App
Temp
°C
Dew
Point
°C
Rel
Hum
%
Delta-T
°C
Wind Press
QNH
hPa
Press
MSL
hPa
Rain since
9am
mm
Dir  Spd
km/h
Gust
km/h
Spd
kts
Gust
kts
27/04:00pm 20.1 15.5 5.4 38 7.2 SSW 19 28 10 15 1022.7 1022.5 0.0
27/03:30pm 20.0 15.6 4.9 37 7.4 S 17 26 9 14 1022.7 1022.5 0.0
27/03:00pm 19.8 14.9 4.3 36 7.5 S 19 26 10 14 1022.8 1022.6 0.0
27/02:30pm 19.5 14.7 4.4 37 7.3 SSE 19 30 10 16 1022.9 1022.7 0.0
27/02:00pm 19.5 14.7 4.8 38 7.2 S 19 32 10 17 1023.0 1022.8 0.0
27/01:30pm 18.5 14.1 5.0 41 6.5 SSW 17 24 9 13 1023.5 1023.3 0.0
27/01:00pm 18.3 13.5 4.8 41 6.5 SSW 19 28 10 15 1024.1 1024.0 0.0
27/12:30pm 18.1 13.7 5.0 42 6.3 SSW 17 26 9 14 1024.7 1024.6 0.0
27/12:00pm 18.0 13.3 5.2 43 6.2 SSE 19 28 10 15 1025.2 1025.1 0.0
27/11:30am 17.0 13.1 5.3 46 5.6 SSE 15 28 8 15 1025.6 1025.5 0.0
27/11:00am 16.0 11.6 5.0 48 5.2 S 17 22 9 12 1025.9 1025.8 0.0
27/10:30am 15.8 11.9 5.4 50 5.0 S 15 22 8 12 1026.2 1026.1 0.0
27/10:00am 14.0 9.7 5.1 55 4.2 S 17 20 9 11 1026.4 1026.3 0.0
27/09:30am 12.5 8.3 4.0 56 3.8 S 15 19 8 10 1026.4 1026.3 0.0
27/09:00am 11.9 8.8 3.7 57 3.7 S 9 15 5 8 1026.0 1025.9 0.0
27/08:30am 10.0 6.7 2.6 60 3.2 SSW 9 11 5 6 1025.5 1025.4 0.0
27/08:00am 8.5 5.5 2.3 65 2.6 SSW 7 9 4 5 1025.1 1025.0 0.0
27/07:30am 7.4 3.9 1.5 66 2.4 SSW 9 9 5 5 1024.8 1024.7 0.0
27/07:00am 7.4 4.0 1.9 68 2.3 SSW 9 11 5 6 1024.6 1024.5 0.0
27/06:30am 7.5 4.5 1.8 67 2.3 SSW 7 9 4 5 1024.3 1024.2 0.0
27/06:00am 7.8 4.0 1.9 66 2.4 SSW 11 13 6 7 1024.1 1024.0 0.0
27/05:30am 8.6 4.5 2.2 64 2.7 SSW 13 15 7 8 1023.9 1023.8 0.0
27/05:00am 9.4 4.6 2.5 62 2.9 SSW 17 24 9 13 1023.6 1023.4 0.0
27/04:30am 9.2 4.7 2.3 62 2.9 SSW 15 17 8 9 1023.3 1023.1 0.0
27/04:00am 9.8 5.7 2.4 60 3.2 SSW 13 15 7 8 1023.3 1023.1 0.0
27/03:30am 10.4 6.0 2.7 59 3.3 SSW 15 19 8 10 1023.3 1023.1 0.0
27/03:00am 11.1 6.0 2.9 57 3.6 SSW 19 20 10 11 1023.2 1023.0 0.0
27/02:30am 10.7 6.6 2.5 57 3.5 SSW 13 17 7 9 1023.2 1023.0 0.0
27/02:00am 10.7 7.5 2.8 58 3.4 SSW 9 9 5 5 1022.9 1022.7 0.0
27/01:30am 10.9 6.9 2.7 57 3.5 SSW 13 15 7 8 1023.1 1022.9 0.0
27/01:00am 11.1 7.1 2.7 56 3.7 SSW 13 13 7 7 1023.1 1022.9 0.0
27/12:30am 11.3 7.3 2.9 56 3.7 SSW 13 15 7 8 1023.2 1023.0 0.0
27/12:00am 11.8 7.8 3.1 55 3.8 SSW 13 13 7 7 1023.3 1023.1 0.0
 
Date/Time
CST
Temp
°C
App
Temp
°C
Dew
Point
°C
Rel
Hum
%
Delta-T
°C
Wind Press
QNH
hPa
Press
MSL
hPa
Rain since
9am
mm
Dir  Spd
km/h
Gust
km/h
Spd
kts
Gust
kts
26/11:30pm 12.3 8.4 3.3 54 4.0 SSW 13 13 7 7 1023.4 1023.2 0.0
26/11:00pm 13.3 10.4 4.5 55 4.1 SW 9 11 5 6 1023.3 1023.1 0.0
26/10:30pm 13.4 10.1 4.3 54 4.2 SW 11 11 6 6 1023.3 1023.1 0.0
26/10:00pm 13.7 10.7 4.3 53 4.3 SW 9 9 5 5 1023.3 1023.1 0.0
26/09:30pm 14.3 11.7 4.3 51 4.6 SSW 7 9 4 5 1023.1 1022.9 0.0
26/09:00pm 15.1 12.3 5.0 51 4.8 SSW 9 11 5 6 1023.1 1022.9 0.0
26/08:30pm 15.4 12.2 5.0 50 4.9 SSW 11 13 6 7 1023.0 1022.8 0.0
26/08:00pm 15.9 12.3 5.2 49 5.1 S 13 15 7 8 1022.8 1022.6 0.0
26/07:30pm 16.7 13.9 5.3 47 5.5 S 9 11 5 6 1022.5 1022.3 0.0
26/07:00pm 17.5 14.5 5.8 46 5.7 SSW 11 11 6 6 1022.3 1022.1 0.0
26/06:30pm 18.5 15.1 6.0 44 6.2 SSW 13 19 7 10 1021.9 1021.7 0.0
26/06:00pm 19.1 14.4 5.9 42 6.5 SSW 20 24 11 13 1021.7 1021.5 0.0
26/05:30pm 19.7 14.2 6.1 41 6.8 SSW 24 30 13 16 1021.2 1021.0 0.0
26/05:00pm 19.8 14.7 6.2 41 6.8 SSW 22 30 12 16 1020.9 1020.7 0.0
26/04:30pm 21.0 15.9 5.8 37 7.6 SSW 22 32 12 17 1020.7 1020.5 0.0
26/04:00pm 20.9 15.9 6.4 39 7.4 SSW 22 30 12 16 1020.6 1020.4 0.0
26/03:30pm 21.0 17.1 6.9 40 7.2 SW 17 26 9 14 1020.7 1020.5 0.0
26/03:00pm 21.1 15.8 7.0 40 7.2 WSW 24 35 13 19 1020.8 1020.6 0.0
26/02:30pm 20.2 15.9 6.9 42 6.8 SW 19 30 10 16 1021.0 1020.8 0.0
26/02:00pm 20.2 16.3 7.2 43 6.7 SSW 17 26 9 14 1021.2 1021.0 0.0
26/01:30pm 19.8 17.1 7.5 45 6.3 SSW 11 26 6 14 1021.4 1021.2 0.0
26/01:00pm 19.8 16.9 8.2 47 6.0 S 13 24 7 13 1021.9 1021.7 0.0
26/12:30pm 19.6 16.4 8.3 48 5.9 SSE 15 24 8 13 1022.5 1022.3 0.0
26/12:00pm 18.6 15.7 8.0 50 5.4 SSE 13 20 7 11 1023.0 1022.8 0.0
26/11:30am 18.1 16.0 8.4 53 5.0 SSE 9 15 5 8 1023.4 1023.2 0.0
26/11:00am 17.4 14.9 8.3 55 4.7 ENE 11 20 6 11 1023.7 1023.5 0.0
26/10:30am 16.7 13.9 8.4 58 4.2 ESE 13 22 7 12 1023.9 1023.8 0.0
26/10:00am 15.9 13.2 8.9 63 3.6 SE 13 20 7 11 1024.3 1024.2 0.0
26/09:30am 14.3 11.9 8.5 68 2.9 SSE 11 15 6 8 1024.3 1024.2 0.0
26/09:00am 13.1 10.3 8.4 73 2.3 S 13 17 7 9 1024.1 1024.0 -
26/08:30am 11.9 9.3 7.8 76 2.0 S 11 15 6 8 1023.8 1023.6 -
26/08:00am 11.0 8.0 7.5 79 1.7 SSW 13 15 7 8 1023.6 1023.4 -
26/07:30am 9.6 7.0 6.3 80 1.5 SSW 9 11 5 6 1023.2 1023.0 -
26/07:00am 9.5 6.2 6.2 80 1.5 SSW 13 13 7 7 1022.8 1022.6 -
26/06:30am 9.9 7.0 6.3 78 1.7 SSW 11 13 6 7 1022.6 1022.4 -
26/06:00am 10.1 7.4 5.7 74 2.0 SSW 9 11 5 6 1022.2 1022.0 -
26/05:30am 10.4 7.0 5.8 73 2.1 SSW 13 15 7 8 1021.9 1021.7 -
26/02:30am 13.1 8.2 4.0 54 4.1 SSW 19 20 10 11 1021.6 1021.4 0.0
26/02:00am 13.6 8.4 3.7 51 4.5 S 20 26 11 14 1021.5 1021.3 0.0
26/01:30am 13.6 8.5 2.8 48 4.8 SSW 19 20 10 11 1021.5 1021.3 0.0
26/01:00am 13.6 10.3 2.5 47 4.9 S 9 9 5 5 1021.3 1021.1 0.0
26/12:30am 14.2 11.0 2.8 46 5.1 S 9 9 5 5 1021.6 1021.4 0.0
26/12:00am 14.3 11.0 2.5 45 5.2 SSW 9 11 5 6 1021.6 1021.4 0.0
 
Date/Time
CST
Temp
°C
App
Temp
°C
Dew
Point
°C
Rel
Hum
%
Delta-T
°C
Wind Press
QNH
hPa
Press
MSL
hPa
Rain since
9am
mm
Dir  Spd
km/h
Gust
km/h
Spd
kts
Gust
kts
25/11:30pm 14.9 10.5 2.8 44 5.4 S 15 17 8 9 1021.6 1021.4 0.0
25/11:00pm 15.4 11.0 2.6 42 5.8 S 15 17 8 9 1021.6 1021.4 0.0
25/10:30pm 16.1 12.8 2.5 40 6.1 S 9 11 5 6 1021.7 1021.5 0.0
25/10:00pm 16.6 12.9 2.6 39 6.4 S 11 13 6 7 1021.6 1021.4 0.0
25/09:30pm 17.6 13.2 2.8 37 6.8 S 15 17 8 9 1021.3 1021.1 0.0
25/09:00pm 18.6 13.9 3.3 36 7.2 S 17 19 9 10 1021.2 1021.0 0.0
25/08:30pm 19.4 14.7 3.2 34 7.6 S 17 20 9 11 1021.0 1020.8 0.0
25/08:00pm 20.0 15.5 4.1 35 7.7 S 17 20 9 11 1020.6 1020.4 0.0
25/07:30pm 20.5 16.5 4.9 36 7.6 SSW 15 17 8 9 1020.3 1020.1 0.0
25/07:00pm 21.5 16.9 5.8 36 7.9 SSW 19 24 10 13 1019.7 1019.5 0.0
25/06:30pm 22.1 17.5 6.3 36 8.0 SSW 20 24 11 13 1019.2 1019.1 0.0
25/06:00pm 22.7 18.1 6.5 35 8.3 SSW 20 26 11 14 1018.7 1018.6 0.0
25/05:30pm 23.5 18.6 6.7 34 8.7 SSW 22 30 12 16 1018.4 1018.3 0.0
25/05:00pm 24.1 18.7 6.4 32 9.2 SSW 24 30 13 16 1018.1 1018.0 0.0
25/04:30pm 24.9 19.2 6.6 31 9.5 SSW 26 37 14 20 1017.7 1017.6 0.0
25/04:00pm 25.4 20.2 7.1 31 9.7 SSW 24 32 13 17 1017.6 1017.5 0.0
25/03:30pm 25.5 20.4 7.6 32 9.5 SSW 24 32 13 17 1017.6 1017.5 0.0
25/03:00pm 25.1 20.3 7.3 32 9.4 SSW 22 32 12 17 1017.6 1017.5 0.0
25/02:30pm 25.8 20.8 7.9 32 9.6 SW 24 32 13 17 1017.5 1017.4 0.0
25/02:00pm 25.3 20.4 8.3 34 9.2 SSW 24 37 13 20 1017.5 1017.4 0.0
25/01:30pm 25.9 21.4 8.4 33 9.5 SW 22 33 12 18 1017.8 1017.7 0.0
25/01:00pm 24.8 20.5 7.9 34 9.0 SW 20 28 11 15 1018.1 1018.0 0.0
25/12:30pm 24.5 20.7 7.6 34 8.9 SW 17 24 9 13 1018.7 1018.6 0.0
25/12:00pm 23.3 19.8 7.4 36 8.3 SW 15 22 8 12 1019.2 1019.1 0.0
25/11:30am 22.4 18.8 6.6 36 8.1 SW 15 20 8 11 1019.7 1019.5 0.0
25/11:00am 21.4 18.0 6.1 37 7.7 SW 13 19 7 10 1020.0 1019.8 0.0
25/10:30am 20.6 17.6 6.2 39 7.2 SSW 11 17 6 9 1020.1 1019.9 0.0
25/10:00am 19.5 17.3 6.3 42 6.6 SSW 7 9 4 5 1020.1 1019.9 0.0
25/09:30am 18.5 16.3 6.4 45 6.0 SSW 7 9 4 5 1020.1 1019.9 0.0
25/09:00am 17.4 15.2 6.0 47 5.6 SW 7 9 4 5 1020.0 1019.8 0.0
25/08:30am 16.7 14.1 5.9 49 5.3 WSW 9 11 5 6 1019.9 1019.7 0.0
25/08:00am 12.9 9.6 2.7 50 4.5 SW 9 13 5 7 1019.6 1019.4 0.0
25/07:30am 12.8 9.3 3.7 54 4.1 NW 11 13 6 7 1018.8 1018.7 0.0
25/07:00am 13.1 10.0 3.7 53 4.3 NW 9 9 5 5 1018.7 1018.6 0.0
25/06:30am 13.1 10.5 4.0 54 4.1 NW 7 7 4 4 1018.4 1018.3 0.0
25/06:00am 13.0 10.0 3.9 54 4.1 NW 9 11 5 6 1018.1 1018.0 0.0
25/05:30am 13.0 9.9 3.7 53 4.2 NW 9 9 5 5 1018.0 1017.9 0.0
25/05:00am 13.8 10.4 3.9 51 4.5 NW 11 13 6 7 1017.9 1017.8 0.0
25/04:30am 14.4 11.0 4.1 50 4.7 NW 11 11 6 6 1017.5 1017.4 0.0
25/04:00am 14.1 10.7 3.8 50 4.7 NW 11 13 6 7 1017.9 1017.8 0.0
25/03:30am 15.1 12.4 3.6 46 5.3 ENE 7 9 4 5 1017.9 1017.8 0.0
25/03:00am 14.1 11.4 2.7 46 5.1 ENE 6 7 3 4 1018.2 1018.1 0.0
25/02:30am 15.0 13.6 3.5 46 5.3 CALM 0 0 0 0 1018.6 1018.5 0.0
25/02:00am 14.2 12.0 3.1 47 5.0 ENE 4 9 2 5 1018.6 1018.5 0.0
25/01:30am 14.8 12.5 2.7 44 5.4 ENE 4 7 2 4 1018.9 1018.8 0.0
25/01:00am 16.7 15.1 4.7 45 5.7 ENE 2 7 1 4 1019.0 1018.9 0.0
25/12:30am 16.6 15.3 4.0 43 5.9 CALM 0 0 0 0 1019.5 1019.3 0.0
25/12:00am 17.2 15.9 4.2 42 6.1 CALM 0 0 0 0 1019.7 1019.5 0.0
 
Date/Time
CST
Temp
°C
App
Temp
°C
Dew
Point
°C
Rel
Hum
%
Delta-T
°C
Wind Press
QNH
hPa
Press
MSL
hPa
Rain since
9am
mm
Dir  Spd
km/h
Gust
km/h
Spd
kts
Gust
kts
24/11:30pm 17.3 15.9 3.6 40 6.4 CALM 0 0 0 0 1019.8 1019.6 0.0
24/11:00pm 17.6 16.2 3.5 39 6.6 CALM 0 0 0 0 1019.9 1019.7 0.0
24/10:30pm 18.7 16.1 4.1 38 6.9 ENE 7 9 4 5 1020.0 1019.8 0.0
24/10:00pm 19.4 16.0 4.0 36 7.4 E 11 13 6 7 1020.0 1019.8 0.0
24/09:30pm 20.0 16.3 4.5 36 7.5 E 13 15 7 8 1020.0 1019.8 0.0
24/09:00pm 19.9 17.0 4.4 36 7.5 SE 9 13 5 7 1020.0 1019.8 0.0
24/08:30pm 20.2 17.7 4.7 36 7.5 SSE 7 9 4 5 1019.9 1019.7 0.0
24/08:00pm 21.2 17.5 4.7 34 8.1 E 13 13 7 7 1019.6 1019.4 0.0
24/07:30pm 21.7 18.7 4.3 32 8.5 W 9 11 5 6 1019.6 1019.4 0.0
24/07:00pm 22.6 20.1 4.6 31 8.9 W 7 9 4 5 1019.1 1019.0 0.0
24/06:30pm 23.5 20.8 5.4 31 9.1 WNW 9 9 5 5 1018.8 1018.7 0.0
24/06:00pm 24.3 21.9 5.1 29 9.7 WNW 7 7 4 4 1018.7 1018.6 0.0
24/05:30pm 25.1 24.0 5.3 28 10.1 CALM 0 0 0 0 1018.5 1018.4 0.0
24/05:00pm 25.9 24.9 5.5 27 10.5 CALM 0 0 0 0 1018.4 1018.3 0.0
24/04:30pm 26.1 25.1 5.7 27 10.5 CALM 0 6 0 3 1018.6 1018.5 0.0

Other formats

Comma delimited format used in spreadsheet applications
http://www.bom.gov.au/fwo/IDS60801/IDS60801.94476.axf

JavaScript Object Notation format (JSON) in row-major order
http://www.bom.gov.au/fwo/IDS60801/IDS60801.94476.json

Data quality

Most of these data are generated automatically and are frequently updated. Quality checks on data are not normally performed. It is possible for incorrect values to appear. Refer to information at About Latest Weather Observations and please check the disclaimer before using these data.